createdAt,value
2019-03-25T00:00:31.314Z,3.13
2019-03-25T00:03:02.073Z,3.30
2019-03-25T00:05:32.763Z,4.20
2019-03-25T00:08:03.490Z,4.00
2019-03-25T00:10:34.562Z,4.20
2019-03-25T00:13:15.572Z,6.37
2019-03-25T00:15:47.207Z,4.80
2019-03-25T00:18:18.429Z,3.63
2019-03-25T00:20:58.194Z,4.77
2019-03-25T00:23:28.897Z,4.47
2019-03-25T00:25:59.686Z,4.57
2019-03-25T00:28:30.291Z,3.63
2019-03-25T00:31:00.946Z,3.20
2019-03-25T00:33:31.732Z,5.90
2019-03-25T00:36:02.410Z,3.33
2019-03-25T00:38:32.980Z,4.40
2019-03-25T00:41:03.627Z,4.37
2019-03-25T00:43:34.280Z,4.97
2019-03-25T00:46:05.056Z,3.67
2019-03-25T00:48:35.724Z,5.47
2019-03-25T00:51:06.420Z,3.07
2019-03-25T00:53:37.068Z,6.00
2019-03-25T00:56:07.810Z,5.83
2019-03-25T00:58:39.465Z,4.00
2019-03-25T01:01:10.305Z,5.60
2019-03-25T01:03:41.497Z,7.10
2019-03-25T01:06:12.295Z,4.37
2019-03-25T01:08:42.992Z,9.67
2019-03-25T01:11:13.793Z,2.47
2019-03-25T01:13:44.373Z,4.03
2019-03-25T01:16:16.086Z,4.70
2019-03-25T01:18:46.759Z,7.30
2019-03-25T01:21:17.510Z,4.00
2019-03-25T01:23:48.662Z,3.90
2019-03-25T01:26:19.828Z,5.63
2019-03-25T01:28:51.046Z,2.80
2019-03-25T01:31:21.635Z,3.10
2019-03-25T01:33:52.304Z,2.93
2019-03-25T01:36:22.894Z,2.73
2019-03-25T01:38:53.534Z,3.20
2019-03-25T01:41:24.230Z,4.23
2019-03-25T01:43:54.863Z,3.40
2019-03-25T01:46:25.882Z,4.73
2019-03-25T01:48:56.550Z,3.80
2019-03-25T01:51:27.186Z,3.63
2019-03-25T01:53:57.900Z,6.40
2019-03-25T01:56:28.496Z,4.33
2019-03-25T01:58:59.211Z,3.77
2019-03-25T02:01:29.827Z,4.73
2019-03-25T02:04:00.552Z,5.63
2019-03-25T02:06:31.302Z,2.57
2019-03-25T02:09:02.022Z,4.27
2019-03-25T02:11:32.640Z,5.50
2019-03-25T02:14:03.730Z,2.80
2019-03-25T02:16:35.835Z,2.50
2019-03-25T02:19:06.586Z,3.43
2019-03-25T02:21:37.146Z,9.17
2019-03-25T02:24:07.969Z,8.37
2019-03-25T02:26:38.541Z,12.30
2019-03-25T02:29:09.173Z,13.43
2019-03-25T02:31:40.381Z,9.97
2019-03-25T02:34:11.022Z,14.87
2019-03-25T02:36:41.668Z,12.93
2019-03-25T02:39:12.484Z,11.23
2019-03-25T02:41:43.136Z,10.17
2019-03-25T02:44:13.757Z,13.73
2019-03-25T02:46:44.368Z,8.80
2019-03-25T02:49:15.221Z,8.80
2019-03-25T02:51:46.885Z,9.57
2019-03-25T02:54:17.512Z,13.95
2019-03-25T02:56:48.198Z,7.95
2019-03-25T02:59:19.609Z,9.20
2019-03-25T03:01:50.233Z,10.10
2019-03-25T03:04:21.293Z,8.18
2019-03-25T03:06:52.020Z,9.08
2019-03-25T03:09:22.712Z,9.00
2019-03-25T03:11:53.361Z,9.83
2019-03-25T03:14:25.050Z,9.88
2019-03-25T03:16:55.665Z,6.97
2019-03-25T03:19:26.590Z,7.80
2019-03-25T03:21:57.401Z,8.25
2019-03-25T03:24:27.992Z,8.33
2019-03-25T03:26:58.611Z,7.65
2019-03-25T03:29:29.220Z,12.60
2019-03-25T03:31:59.835Z,12.37
2019-03-25T03:34:30.534Z,8.93
2019-03-25T03:37:02.679Z,8.83
2019-03-25T03:39:33.826Z,11.10
2019-03-25T03:42:04.530Z,6.90
2019-03-25T03:44:35.290Z,8.35
2019-03-25T03:47:05.918Z,8.98
2019-03-25T03:49:36.689Z,11.35
2019-03-25T03:52:07.311Z,6.17
2019-03-25T03:54:39.334Z,10.00
2019-03-25T03:57:10.936Z,13.05
2019-03-25T03:59:41.716Z,7.00
2019-03-25T04:02:12.445Z,8.05
2019-03-25T04:04:43.023Z,7.97
2019-03-25T04:07:13.637Z,6.60
2019-03-25T04:09:44.360Z,6.33
2019-03-25T04:12:15.496Z,6.17
2019-03-25T04:14:46.114Z,6.00
2019-03-25T04:17:16.802Z,7.92
2019-03-25T04:19:48.620Z,9.98
2019-03-25T04:22:19.267Z,4.90
2019-03-25T04:24:50.006Z,5.62
2019-03-25T04:27:23.251Z,8.88
2019-03-25T04:29:53.884Z,6.40
2019-03-25T04:32:24.998Z,8.50
2019-03-25T04:34:55.746Z,12.23
2019-03-25T04:37:26.653Z,9.53
2019-03-25T04:39:57.330Z,8.00
2019-03-25T04:42:28.271Z,6.95
2019-03-25T04:44:58.970Z,11.03
2019-03-25T04:47:29.749Z,9.80
2019-03-25T04:50:00.894Z,7.78
2019-03-25T04:52:31.610Z,8.43
2019-03-25T04:55:02.297Z,7.50
2019-03-25T04:57:34.410Z,8.73
2019-03-25T05:00:05.334Z,10.23
2019-03-25T05:02:36.130Z,12.15
2019-03-25T05:05:07.291Z,10.35
2019-03-25T05:07:37.915Z,7.80
2019-03-25T05:10:09.554Z,7.53
2019-03-25T05:12:40.316Z,10.65
2019-03-25T05:15:11.262Z,9.98
2019-03-25T05:17:41.959Z,10.40
2019-03-25T05:20:13.035Z,9.73
2019-03-25T05:22:43.790Z,13.22
2019-03-25T05:25:15.039Z,8.30
2019-03-25T05:27:45.652Z,6.70
2019-03-25T05:30:16.314Z,7.55
2019-03-25T05:32:47.090Z,10.75
2019-03-25T05:35:17.815Z,11.60
2019-03-25T05:37:48.495Z,7.92
2019-03-25T05:40:19.183Z,11.18
2019-03-25T05:42:49.774Z,9.70
2019-03-25T05:45:20.986Z,10.32
2019-03-25T05:47:51.633Z,8.88
2019-03-25T05:50:22.268Z,10.10
2019-03-25T05:52:53.055Z,8.23
2019-03-25T05:55:23.871Z,8.75
2019-03-25T05:57:54.633Z,6.95
2019-03-25T06:00:28.157Z,6.25
2019-03-25T06:02:58.871Z,10.70
2019-03-25T06:05:29.517Z,7.05
2019-03-25T06:08:00.565Z,11.33
2019-03-25T06:10:31.308Z,9.68
2019-03-25T06:13:02.038Z,10.75
2019-03-25T06:15:32.695Z,17.30
2019-03-25T06:18:03.485Z,7.50
2019-03-25T06:20:34.182Z,8.13
2019-03-25T06:23:04.778Z,7.10
2019-03-25T06:25:35.401Z,9.18
2019-03-25T06:28:06.145Z,7.40
2019-03-25T06:30:36.779Z,6.25
2019-03-25T06:33:12.606Z,6.80
2019-03-25T06:35:41.269Z,7.62
2019-03-25T06:38:12.032Z,6.03
2019-03-25T06:40:42.648Z,5.00
2019-03-25T06:43:13.297Z,10.18
2019-03-25T06:45:43.913Z,5.22
2019-03-25T06:48:14.817Z,8.68
2019-03-25T06:50:45.444Z,8.13
2019-03-25T06:53:16.232Z,6.30
2019-03-25T06:55:46.911Z,7.08
2019-03-25T06:58:17.605Z,4.45
2019-03-25T07:00:48.318Z,4.53
2019-03-25T07:03:19.480Z,5.33
2019-03-25T07:05:50.435Z,5.08
2019-03-25T07:08:21.022Z,5.12
2019-03-25T07:10:52.276Z,17.42
2019-03-25T07:13:23.023Z,6.23
2019-03-25T07:15:53.638Z,7.90
2019-03-25T07:18:24.296Z,26.45
2019-03-25T07:20:54.945Z,11.37
2019-03-25T07:23:25.657Z,9.13
2019-03-25T07:25:56.280Z,23.83
2019-03-25T07:28:26.862Z,19.17
2019-03-25T07:30:57.495Z,8.67
2019-03-25T07:33:28.225Z,6.90
2019-03-25T07:35:59.069Z,10.40
2019-03-25T07:38:29.714Z,8.60
2019-03-25T07:41:00.939Z,8.70
2019-03-25T07:43:31.576Z,7.77
2019-03-25T07:46:03.324Z,5.20
2019-03-25T07:48:33.962Z,7.40
2019-03-25T07:51:04.676Z,9.33
2019-03-25T07:53:35.909Z,9.00
2019-03-25T07:56:06.721Z,8.73
2019-03-25T07:58:37.740Z,7.17
2019-03-25T08:01:08.702Z,11.10
2019-03-25T08:03:39.925Z,8.93
2019-03-25T08:06:10.619Z,8.57
2019-03-25T08:08:41.625Z,8.60
2019-03-25T08:11:12.271Z,7.63
2019-03-25T08:16:24.278Z,12.10
2019-03-25T08:18:55.453Z,8.87
2019-03-25T08:21:26.030Z,8.27
2019-03-25T08:23:56.913Z,9.80
2019-03-25T08:26:28.947Z,10.80
2019-03-25T08:29:00.203Z,8.50
2019-03-25T08:31:30.998Z,8.10
2019-03-25T08:34:01.726Z,7.10
2019-03-25T08:36:36.082Z,9.43
2019-03-25T08:39:08.218Z,8.37
2019-03-25T08:41:43.982Z,12.87
2019-03-25T08:44:18.865Z,11.23
2019-03-25T08:46:49.871Z,9.63
2019-03-25T08:49:21.613Z,8.20
2019-03-25T08:51:52.674Z,8.70
2019-03-25T08:54:23.991Z,12.87
2019-03-25T08:56:54.790Z,12.10
2019-03-25T08:59:25.641Z,14.00
2019-03-25T09:01:56.556Z,11.50
2019-03-25T09:04:28.026Z,9.40
2019-03-25T09:06:58.988Z,12.23
2019-03-25T09:09:29.685Z,10.50
2019-03-25T09:12:01.064Z,6.70
2019-03-25T09:14:31.846Z,8.00
2019-03-25T09:17:02.786Z,13.53
2019-03-25T09:19:33.688Z,7.03
2019-03-25T09:22:04.493Z,8.80
2019-03-25T09:24:35.191Z,8.40
2019-03-25T09:27:05.963Z,7.87
2019-03-25T09:29:36.619Z,6.37
2019-03-25T09:32:07.380Z,9.73
2019-03-25T09:34:38.120Z,14.63
2019-03-25T09:37:10.007Z,9.73
2019-03-25T09:39:40.694Z,10.17
2019-03-25T09:42:11.604Z,9.37
2019-03-25T09:44:43.484Z,11.97
2019-03-25T09:47:14.298Z,7.27
2019-03-25T09:49:44.977Z,8.50
2019-03-25T09:52:16.338Z,9.13
2019-03-25T09:54:47.481Z,14.00
2019-03-25T09:57:19.602Z,8.80
2019-03-25T09:59:50.437Z,10.97
2019-03-25T10:02:21.264Z,11.00
2019-03-25T10:04:52.022Z,9.40
2019-03-25T10:07:24.811Z,10.33
2019-03-25T10:09:55.669Z,14.70
2019-03-25T10:12:26.922Z,13.37
2019-03-25T10:14:57.951Z,16.30
2019-03-25T10:17:28.860Z,12.70
2019-03-25T10:19:59.743Z,12.33
2019-03-25T10:22:31.820Z,13.87
2019-03-25T10:25:02.737Z,14.13
2019-03-25T10:27:33.726Z,9.63
2019-03-25T10:30:05.131Z,11.00
2019-03-25T10:32:37.179Z,14.70
2019-03-25T10:35:09.037Z,14.87
2019-03-25T10:37:39.848Z,10.77
2019-03-25T10:40:11.330Z,13.67
2019-03-25T10:42:42.282Z,10.63
2019-03-25T10:45:13.625Z,11.73
2019-03-25T10:47:44.583Z,13.70
2019-03-25T10:50:15.635Z,11.70
2019-03-25T10:52:46.627Z,18.33
2019-03-25T10:55:17.508Z,19.77
2019-03-25T10:57:48.210Z,11.53
2019-03-25T11:00:19.932Z,11.70
2019-03-25T11:02:50.928Z,14.33
2019-03-25T11:05:21.744Z,17.53
2019-03-25T11:07:52.451Z,17.80
2019-03-25T11:10:26.378Z,18.47
2019-03-25T11:12:57.210Z,16.10
2019-03-25T11:15:28.146Z,24.43
2019-03-25T11:17:58.895Z,15.50
2019-03-25T11:20:29.621Z,16.43
2019-03-25T11:23:01.206Z,15.37
2019-03-25T11:25:31.881Z,14.70
2019-03-25T11:28:03.091Z,13.53
2019-03-25T11:30:56.808Z,17.23
2019-03-25T11:33:27.797Z,15.80
2019-03-25T11:35:58.684Z,14.00
2019-03-25T11:38:29.536Z,15.37
2019-03-25T11:41:00.513Z,16.57
2019-03-25T11:43:31.663Z,12.10
2019-03-25T11:46:02.570Z,15.10
2019-03-25T11:48:33.458Z,15.57
2019-03-25T11:51:04.226Z,12.80
2019-03-25T11:53:34.870Z,20.53
2019-03-25T11:56:05.930Z,15.63
2019-03-25T11:58:37.293Z,16.07
2019-03-25T12:01:08.166Z,20.63
2019-03-25T12:03:38.912Z,13.83
2019-03-25T12:06:09.876Z,13.40
2019-03-25T12:08:40.524Z,15.00
2019-03-25T12:11:12.018Z,15.73
2019-03-25T12:13:44.066Z,23.23
2019-03-25T12:16:14.922Z,18.93
2019-03-25T12:18:45.939Z,14.17
2019-03-25T12:21:16.989Z,16.03
2019-03-25T12:23:48.419Z,15.33
2019-03-25T12:26:19.142Z,9.53
2019-03-25T12:28:49.852Z,14.13
2019-03-25T12:31:20.760Z,11.00
2019-03-25T12:33:51.606Z,10.40
2019-03-25T12:36:22.416Z,8.77
2019-03-25T12:38:53.496Z,11.80
2019-03-25T12:41:24.254Z,6.57
2019-03-25T12:43:54.970Z,9.90
2019-03-25T12:46:25.961Z,9.13
2019-03-25T12:48:56.931Z,10.20
2019-03-25T12:51:28.070Z,8.23
2019-03-25T12:53:58.888Z,11.53
2019-03-25T12:56:29.596Z,11.10
2019-03-25T12:59:00.401Z,12.40
2019-03-25T13:01:31.453Z,11.53
2019-03-25T13:04:02.438Z,9.53
2019-03-25T13:06:36.193Z,12.57
2019-03-25T13:09:09.139Z,16.53
2019-03-25T13:11:40.298Z,8.80
2019-03-25T13:14:11.094Z,11.03
2019-03-25T13:16:41.937Z,8.13
2019-03-25T13:19:12.807Z,8.58
2019-03-25T13:21:43.501Z,22.57
2019-03-25T13:24:14.561Z,10.53
2019-03-25T13:26:45.604Z,10.87
2019-03-25T13:29:16.786Z,19.97
2019-03-25T13:31:47.489Z,9.80
2019-03-25T13:34:18.290Z,13.57
2019-03-25T13:36:51.455Z,10.50
2019-03-25T13:39:22.762Z,19.07
2019-03-25T13:41:53.980Z,20.60
2019-03-25T13:44:27.759Z,10.33
2019-03-25T13:46:58.563Z,18.53
2019-03-25T13:49:29.364Z,15.63
2019-03-25T13:51:59.894Z,7.97
2019-03-25T13:54:31.057Z,14.37
2019-03-25T13:57:02.283Z,10.70
2019-03-25T13:59:33.125Z,27.17
2019-03-25T14:02:04.288Z,23.53
2019-03-25T14:04:35.314Z,14.60
2019-03-25T14:07:06.425Z,10.87
2019-03-25T14:09:37.049Z,9.80
2019-03-25T14:12:07.699Z,10.37
2019-03-25T14:14:38.277Z,9.50
2019-03-25T14:17:09.309Z,16.83
2019-03-25T14:19:41.013Z,9.27
2019-03-25T14:22:11.674Z,7.33
2019-03-25T14:24:42.348Z,9.43
2019-03-25T14:27:13.087Z,11.83
2019-03-25T14:29:43.894Z,11.03
2019-03-25T14:32:14.739Z,7.27
2019-03-25T14:34:45.418Z,17.53
2019-03-25T14:37:16.174Z,28.73
2019-03-25T14:39:46.933Z,16.57
2019-03-25T14:42:17.918Z,9.27
2019-03-25T14:44:48.592Z,15.63
2019-03-25T14:47:19.278Z,18.83
2019-03-25T14:49:52.443Z,14.67
2019-03-25T14:52:23.220Z,9.43
2019-03-25T14:54:53.956Z,7.33
2019-03-25T14:57:24.554Z,13.10
2019-03-25T14:59:55.238Z,16.40
2019-03-25T15:02:26.291Z,10.70
2019-03-25T15:04:57.075Z,13.93
2019-03-25T15:07:27.726Z,13.93
2019-03-25T15:09:58.604Z,10.40
2019-03-25T15:12:29.223Z,11.13
2019-03-25T15:15:00.051Z,10.37
2019-03-25T15:17:30.639Z,12.60
2019-03-25T15:20:02.181Z,16.30
2019-03-25T15:22:32.766Z,11.60
2019-03-25T15:25:03.444Z,12.83
2019-03-25T15:27:34.267Z,14.57
2019-03-25T15:30:05.379Z,16.50
2019-03-25T15:32:36.168Z,9.53
2019-03-25T15:35:08.608Z,7.73
2019-03-25T15:37:39.282Z,12.03
2019-03-25T15:40:11.363Z,11.73
2019-03-25T15:42:42.533Z,10.00
2019-03-25T15:45:13.545Z,11.37
2019-03-25T15:47:47.116Z,8.03
2019-03-25T15:50:17.359Z,10.20
2019-03-25T15:52:48.060Z,10.70
2019-03-25T15:55:18.822Z,9.53
2019-03-25T15:57:49.599Z,19.10
2019-03-25T16:00:20.998Z,14.87
2019-03-25T16:02:51.837Z,9.97
2019-03-25T16:05:22.869Z,7.60
2019-03-25T16:07:53.596Z,11.30
2019-03-25T16:10:24.725Z,7.63
2019-03-25T16:12:55.550Z,7.03
2019-03-25T16:15:43.947Z,7.77
2019-03-25T16:18:41.663Z,6.90
2019-03-25T16:21:12.671Z,9.88
2019-03-25T16:23:43.316Z,13.43
2019-03-25T16:26:14.330Z,14.23
2019-03-25T16:28:44.980Z,11.80
2019-03-25T16:31:15.663Z,12.33
2019-03-25T16:33:46.247Z,11.60
2019-03-25T16:36:17.001Z,8.00
2019-03-25T16:38:47.613Z,12.40
2019-03-25T16:41:18.542Z,16.53
2019-03-25T16:43:49.977Z,16.07
2019-03-25T16:46:20.960Z,7.47
2019-03-25T16:48:51.602Z,14.90
2019-03-25T16:51:22.316Z,13.67
2019-03-25T16:53:53.086Z,11.83
2019-03-25T16:56:23.838Z,14.60
2019-03-25T16:58:54.478Z,9.65
2019-03-25T17:01:25.117Z,11.30
2019-03-25T17:03:55.754Z,12.37
2019-03-25T17:06:26.355Z,15.80
2019-03-25T17:08:57.421Z,10.40
2019-03-25T17:11:28.314Z,15.87
2019-03-25T17:13:59.049Z,7.83
2019-03-25T17:16:29.693Z,8.07
2019-03-25T17:19:02.095Z,24.63
2019-03-25T17:21:32.606Z,11.63
2019-03-25T17:24:03.284Z,7.13
2019-03-25T17:26:41.955Z,6.57
2019-03-25T17:29:06.442Z,11.03
2019-03-25T17:31:37.736Z,12.60
2019-03-25T17:34:08.485Z,12.83
2019-03-25T17:36:39.640Z,8.37
2019-03-25T17:39:11.047Z,13.23
2019-03-25T17:41:41.709Z,10.07
2019-03-25T17:44:12.362Z,12.33
2019-03-25T17:46:43.761Z,10.00
2019-03-25T17:49:14.473Z,15.87
2019-03-25T17:51:45.199Z,16.47
2019-03-25T17:54:15.890Z,12.43
2019-03-25T17:56:46.515Z,11.00
2019-03-25T17:59:17.202Z,11.10
2019-03-25T18:01:48.666Z,9.40
2019-03-25T18:04:19.502Z,11.43
2019-03-25T18:06:50.260Z,28.20
2019-03-25T18:09:20.884Z,22.20
2019-03-25T18:11:51.762Z,17.17
2019-03-25T18:14:22.827Z,14.00
2019-03-25T18:16:53.728Z,12.10
2019-03-25T18:19:24.327Z,6.50
2019-03-25T18:21:54.968Z,7.40
2019-03-25T18:24:25.807Z,6.40
2019-03-25T18:26:56.419Z,11.30
2019-03-25T18:29:28.015Z,6.93
2019-03-25T18:31:58.876Z,10.23
2019-03-25T18:34:29.570Z,8.80
2019-03-25T18:37:00.194Z,19.77
2019-03-25T18:39:30.994Z,16.63
2019-03-25T18:42:02.562Z,15.63
2019-03-25T18:44:33.458Z,7.73
2019-03-25T18:47:04.229Z,9.00
2019-03-25T18:49:35.133Z,11.73
2019-03-25T18:52:06.159Z,16.40
2019-03-25T18:54:37.578Z,10.73
2019-03-25T18:57:08.354Z,14.63
2019-03-25T18:59:39.419Z,9.83
2019-03-25T19:02:10.305Z,12.70
2019-03-25T19:04:40.964Z,11.73
2019-03-25T19:07:11.525Z,17.70
2019-03-25T19:09:42.580Z,13.57
2019-03-25T19:12:13.252Z,8.87
2019-03-25T19:14:43.885Z,15.93
2019-03-25T19:17:14.728Z,14.57
2019-03-25T19:19:45.443Z,13.27
2019-03-25T19:22:16.234Z,17.03
2019-03-25T19:24:47.295Z,10.53
2019-03-25T19:27:17.966Z,8.27
2019-03-25T19:29:48.711Z,13.93
2019-03-25T19:32:19.386Z,13.63
2019-03-25T19:34:49.990Z,12.20
2019-03-25T19:37:20.629Z,9.93
2019-03-25T19:39:51.257Z,11.10
2019-03-25T19:42:22.184Z,8.53
2019-03-25T19:44:52.917Z,9.80
2019-03-25T19:47:23.700Z,11.50
2019-03-25T19:49:54.431Z,10.37
2019-03-25T19:52:25.479Z,9.50
2019-03-25T19:54:56.114Z,8.13
2019-03-25T19:57:28.421Z,10.20
2019-03-25T19:59:59.566Z,10.23
2019-03-25T20:02:30.291Z,12.53
2019-03-25T20:05:00.993Z,12.23
2019-03-25T20:07:33.320Z,17.27
2019-03-25T20:10:04.012Z,10.83
2019-03-25T20:12:34.674Z,8.20
2019-03-25T20:15:05.950Z,5.97
2019-03-25T20:17:36.904Z,10.93
2019-03-25T20:20:08.189Z,13.60
2019-03-25T20:22:38.772Z,10.43
2019-03-25T20:25:10.041Z,13.80
2019-03-25T20:27:40.665Z,8.17
2019-03-25T20:30:12.119Z,13.63
2019-03-25T20:32:43.047Z,13.70
2019-03-25T20:35:13.935Z,16.93
2019-03-25T20:37:45.438Z,7.97
2019-03-25T20:40:16.566Z,21.00
2019-03-25T20:42:47.533Z,10.97
2019-03-25T20:45:18.677Z,11.97
2019-03-25T20:47:54.354Z,9.07
2019-03-25T20:50:27.228Z,14.90
2019-03-25T20:52:59.667Z,9.53
2019-03-25T20:55:30.798Z,9.47
2019-03-25T20:58:01.982Z,10.23
2019-03-25T21:00:57.433Z,12.70
2019-03-25T21:03:29.488Z,7.93
2019-03-25T21:06:00.190Z,9.70
2019-03-25T21:08:31.511Z,11.03
2019-03-25T21:11:02.713Z,9.43
2019-03-25T21:13:33.631Z,9.70
2019-03-25T21:16:04.479Z,8.07
2019-03-25T21:18:35.126Z,13.10
2019-03-25T21:21:06.182Z,11.93
2019-03-25T21:23:37.083Z,9.40
2019-03-25T21:26:10.914Z,8.10
2019-03-25T21:28:40.918Z,10.87
2019-03-25T21:31:11.660Z,12.00
2019-03-25T21:33:43.701Z,8.90
2019-03-25T21:36:14.656Z,13.50
2019-03-25T21:38:45.509Z,12.90
2019-03-25T21:41:16.758Z,14.43
2019-03-25T21:43:47.901Z,15.93
2019-03-25T21:46:37.877Z,12.83
2019-03-25T21:49:09.492Z,16.60
2019-03-25T21:51:40.234Z,15.80
2019-03-25T21:54:10.932Z,13.90
2019-03-25T21:56:41.725Z,17.53
2019-03-25T21:59:12.389Z,20.43
2019-03-25T22:01:43.063Z,15.53
2019-03-25T22:04:13.925Z,14.60
2019-03-25T22:06:44.724Z,16.63
2019-03-25T22:09:15.890Z,14.33
2019-03-25T22:11:46.510Z,14.83
2019-03-25T22:14:17.486Z,13.00
2019-03-25T22:16:48.242Z,19.10
2019-03-25T22:19:18.890Z,12.97
2019-03-25T22:21:50.334Z,14.43
2019-03-25T22:24:22.133Z,16.20
2019-03-25T22:26:53.068Z,19.02
2019-03-25T22:29:24.066Z,18.97
2019-03-25T22:31:54.892Z,16.43
2019-03-25T22:34:26.009Z,18.67
2019-03-25T22:36:56.732Z,16.00
2019-03-25T22:39:27.627Z,18.10
2019-03-25T22:41:58.310Z,20.27
2019-03-25T22:44:29.164Z,18.92
2019-03-25T22:47:00.339Z,25.12
2019-03-25T22:49:31.668Z,16.23
2019-03-25T22:52:02.301Z,19.33
2019-03-25T22:54:33.393Z,16.10
2019-03-25T22:57:04.350Z,20.23
2019-03-25T22:59:35.616Z,22.07
2019-03-25T23:02:06.880Z,20.72
2019-03-25T23:04:38.766Z,20.83
2019-03-25T23:07:10.123Z,23.73
2019-03-25T23:09:41.047Z,18.37
2019-03-25T23:12:12.359Z,20.25
2019-03-25T23:14:43.080Z,21.80
2019-03-25T23:17:13.972Z,19.30
2019-03-25T23:19:45.080Z,22.97
2019-03-25T23:22:15.875Z,27.22
2019-03-25T23:24:48.018Z,16.50
2019-03-25T23:27:19.326Z,18.92
2019-03-25T23:29:49.988Z,22.70
2019-03-25T23:32:20.682Z,37.55
2019-03-25T23:34:51.360Z,22.95
2019-03-25T23:37:21.931Z,13.80
2019-03-25T23:39:52.566Z,22.00
2019-03-25T23:42:23.265Z,16.30
2019-03-25T23:44:53.910Z,17.87
2019-03-25T23:47:24.649Z,22.87
2019-03-25T23:49:55.816Z,15.15
2019-03-25T23:52:26.494Z,17.15
2019-03-25T23:54:57.404Z,23.35
2019-03-25T23:57:28.237Z,17.30
2019-03-25T23:59:59.020Z,16.42
